createdAt,value
2019-01-06T00:01:46.101Z,35.37
2019-01-06T00:04:19.909Z,35.40
2019-01-06T00:07:07.209Z,34.63
2019-01-06T00:09:38.391Z,37.20
2019-01-06T00:12:15.253Z,37.13
2019-01-06T00:15:04.312Z,36.07
2019-01-06T00:17:47.267Z,37.40
2019-01-06T00:20:23.893Z,35.57
2019-01-06T00:22:54.941Z,36.67
2019-01-06T00:25:42.369Z,36.17
2019-01-06T00:28:16.178Z,38.17
2019-01-06T00:31:03.261Z,36.73
2019-01-06T00:33:50.245Z,38.80
2019-01-06T00:36:21.409Z,36.77
2019-01-06T00:38:58.007Z,37.03
2019-01-06T00:41:31.833Z,36.77
2019-01-06T00:44:19.123Z,38.07
2019-01-06T00:47:06.247Z,40.00
2019-01-06T00:49:53.522Z,43.20
2019-01-06T00:52:24.653Z,40.73
2019-01-06T00:54:55.687Z,41.80
2019-01-06T00:57:43.079Z,45.30
2019-01-06T01:00:16.844Z,46.27
2019-01-06T01:02:59.499Z,48.97
2019-01-06T01:05:48.575Z,47.77
2019-01-06T01:08:19.707Z,46.97
2019-01-06T01:10:53.641Z,48.73
2019-01-06T01:13:24.737Z,50.10
2019-01-06T01:15:55.875Z,48.33
2019-01-06T01:18:36.017Z,49.03
2019-01-06T01:21:13.005Z,49.07
2019-01-06T01:23:53.245Z,46.63
2019-01-06T01:26:24.534Z,47.07
2019-01-06T01:28:58.339Z,49.93
2019-01-06T01:31:45.409Z,49.20
2019-01-06T01:34:22.004Z,50.10
2019-01-06T01:36:53.171Z,51.50
2019-01-06T01:39:24.362Z,48.90
2019-01-06T01:42:10.317Z,48.03
2019-01-06T01:44:41.399Z,51.07
2019-01-06T01:47:12.451Z,49.50
2019-01-06T01:49:59.495Z,48.40
2019-01-06T01:52:48.583Z,48.27
2019-01-06T01:55:35.645Z,47.90
2019-01-06T01:58:22.535Z,47.03
2019-01-06T02:01:09.984Z,48.57
2019-01-06T02:03:43.968Z,48.43
2019-01-06T02:06:30.897Z,46.80
2019-01-06T02:09:04.583Z,46.77
2019-01-06T02:11:44.877Z,46.63
2019-01-06T02:14:15.966Z,48.23
2019-01-06T02:16:52.953Z,47.67
2019-01-06T02:19:30.083Z,46.20
2019-01-06T02:22:06.709Z,46.70
2019-01-06T02:24:46.911Z,45.73
2019-01-06T02:27:27.143Z,46.40
2019-01-06T02:30:13.080Z,46.73
2019-01-06T02:32:50.081Z,45.67
2019-01-06T02:35:21.161Z,46.57
2019-01-06T02:38:01.042Z,43.63
2019-01-06T02:40:43.990Z,45.23
2019-01-06T02:43:21.100Z,47.67
2019-01-06T02:45:57.843Z,46.83
2019-01-06T02:48:34.588Z,46.73
2019-01-06T02:51:23.599Z,44.00
2019-01-06T02:53:57.690Z,44.97
2019-01-06T02:56:45.103Z,43.50
2019-01-06T02:59:34.054Z,45.47
2019-01-06T03:02:21.213Z,43.57
2019-01-06T03:05:07.206Z,43.60
2019-01-06T03:07:44.274Z,42.30
2019-01-06T03:10:15.352Z,44.37
2019-01-06T03:12:55.300Z,40.47
2019-01-06T03:15:44.275Z,41.90
2019-01-06T03:18:15.384Z,42.57
2019-01-06T03:21:01.128Z,41.43
2019-01-06T03:23:44.215Z,41.43
2019-01-06T03:26:15.381Z,42.17
2019-01-06T03:28:52.393Z,42.83
2019-01-06T03:31:38.560Z,39.97
2019-01-06T03:34:25.802Z,41.30
2019-01-06T03:36:56.908Z,41.00
2019-01-06T03:39:44.091Z,41.60
2019-01-06T03:42:21.020Z,40.90
2019-01-06T03:44:52.124Z,41.53
2019-01-06T03:47:23.184Z,42.30
2019-01-06T03:49:56.927Z,43.53
2019-01-06T03:52:30.454Z,42.63
2019-01-06T03:55:17.709Z,41.27
2019-01-06T03:57:48.866Z,41.07
2019-01-06T04:00:19.888Z,41.97
2019-01-06T04:02:53.676Z,40.07
2019-01-06T04:05:40.654Z,40.90
2019-01-06T04:08:27.558Z,40.67
2019-01-06T04:11:15.286Z,41.10
2019-01-06T04:13:54.985Z,38.83
2019-01-06T04:16:42.121Z,38.13
2019-01-06T04:19:18.701Z,38.87
2019-01-06T04:21:52.177Z,38.50
2019-01-06T04:24:23.234Z,39.80
2019-01-06T04:27:03.035Z,39.27
2019-01-06T04:29:50.168Z,38.07
2019-01-06T04:32:37.454Z,38.77
2019-01-06T04:35:11.644Z,37.90
2019-01-06T04:37:54.842Z,38.43
2019-01-06T04:40:41.900Z,38.97
2019-01-06T04:43:12.972Z,38.67
2019-01-06T04:46:01.948Z,38.07
2019-01-06T04:48:42.099Z,37.60
2019-01-06T04:51:22.024Z,37.60
2019-01-06T04:53:55.812Z,39.13
2019-01-06T04:56:42.668Z,36.17
2019-01-06T04:59:25.516Z,37.13
2019-01-06T05:01:59.029Z,37.40
2019-01-06T05:04:33.046Z,36.77
2019-01-06T05:07:20.080Z,36.03
2019-01-06T05:09:56.733Z,36.63
2019-01-06T05:12:33.226Z,36.93
2019-01-06T05:15:12.966Z,36.67
2019-01-06T05:18:00.012Z,36.63
2019-01-06T05:20:31.034Z,36.13
2019-01-06T05:23:04.882Z,36.97
2019-01-06T05:25:44.983Z,37.40
2019-01-06T05:28:19.034Z,33.73
2019-01-06T05:30:59.049Z,35.63
2019-01-06T05:33:35.648Z,35.03
2019-01-06T05:36:23.040Z,35.23
2019-01-06T05:38:54.138Z,35.37
2019-01-06T05:41:27.975Z,37.13
2019-01-06T05:44:10.927Z,34.10
2019-01-06T05:46:44.995Z,36.13
2019-01-06T05:49:28.189Z,34.57
2019-01-06T05:52:07.981Z,35.40
2019-01-06T05:54:56.983Z,34.07
2019-01-06T05:57:43.018Z,35.63
2019-01-06T06:00:28.966Z,36.23
2019-01-06T06:03:00.026Z,35.33
2019-01-06T06:05:40.083Z,35.80
2019-01-06T06:08:13.975Z,35.13
2019-01-06T06:11:01.060Z,35.03
2019-01-06T06:13:41.285Z,37.07
2019-01-06T06:16:12.396Z,36.97
2019-01-06T06:18:48.990Z,34.97
2019-01-06T06:21:22.819Z,36.83
2019-01-06T06:23:53.893Z,35.60
2019-01-06T06:26:41.142Z,36.50
2019-01-06T06:29:14.941Z,36.10
2019-01-06T06:31:46.091Z,35.13
2019-01-06T06:34:17.154Z,36.67
2019-01-06T06:36:48.266Z,35.27
2019-01-06T06:39:28.264Z,37.60
2019-01-06T06:42:11.328Z,34.87
2019-01-06T06:44:57.174Z,33.87
2019-01-06T06:47:40.267Z,34.63
2019-01-06T06:50:29.318Z,35.73
2019-01-06T06:53:00.462Z,35.23
2019-01-06T06:55:31.504Z,34.17
2019-01-06T06:58:20.514Z,36.47
2019-01-06T07:01:09.072Z,33.47
2019-01-06T07:03:57.054Z,34.70
2019-01-06T07:06:39.634Z,33.80
2019-01-06T07:09:10.705Z,32.93
2019-01-06T07:11:57.908Z,32.67
2019-01-06T07:14:37.825Z,33.60
2019-01-06T07:18:02.052Z,32.57
2019-01-06T07:20:33.122Z,33.93
2019-01-06T07:23:04.170Z,31.93
2019-01-06T07:25:35.279Z,34.07
2019-01-06T07:28:06.354Z,34.97
2019-01-06T07:30:50.534Z,35.57
2019-01-06T07:33:37.601Z,33.03
2019-01-06T07:36:24.658Z,33.53
2019-01-06T07:39:07.814Z,31.90
2019-01-06T07:41:55.156Z,32.47
2019-01-06T07:44:35.098Z,32.13
2019-01-06T07:47:17.721Z,33.47
2019-01-06T07:49:51.552Z,33.17
2019-01-06T07:52:22.634Z,32.13
2019-01-06T07:55:02.537Z,32.90
2019-01-06T07:57:39.816Z,33.07
2019-01-06T08:00:28.726Z,32.67
2019-01-06T08:03:11.594Z,31.90
2019-01-06T08:05:51.518Z,30.13
2019-01-06T08:08:37.695Z,31.17
2019-01-06T08:11:08.797Z,30.27
2019-01-06T08:13:56.242Z,30.47
2019-01-06T08:16:43.234Z,30.97
2019-01-06T08:19:14.316Z,30.83
2019-01-06T08:21:57.368Z,30.50
2019-01-06T08:24:44.458Z,30.70
2019-01-06T08:27:15.590Z,29.80
2019-01-06T08:30:02.994Z,31.80
2019-01-06T08:32:46.249Z,31.23
2019-01-06T08:35:20.094Z,30.87
2019-01-06T08:38:03.070Z,29.13
2019-01-06T08:40:34.247Z,30.80
2019-01-06T08:43:23.407Z,30.60
2019-01-06T08:46:00.333Z,29.80
2019-01-06T08:48:34.225Z,28.90
2019-01-06T08:51:14.417Z,27.43
2019-01-06T08:53:54.478Z,29.17
2019-01-06T08:56:40.656Z,29.30
2019-01-06T08:59:11.813Z,29.17
2019-01-06T09:02:00.730Z,29.47
2019-01-06T09:04:37.848Z,28.27
2019-01-06T09:07:17.482Z,28.47
2019-01-06T09:09:57.507Z,28.63
2019-01-06T09:12:28.522Z,29.87
2019-01-06T09:14:59.684Z,28.63
2019-01-06T09:17:39.627Z,29.03
2019-01-06T09:20:27.863Z,29.47
2019-01-06T09:23:05.005Z,28.80
2019-01-06T09:25:41.181Z,28.27
2019-01-06T09:28:14.333Z,29.10
2019-01-06T09:31:00.565Z,29.77
2019-01-06T09:33:34.245Z,29.77
2019-01-06T09:36:07.818Z,31.30
2019-01-06T09:38:39.023Z,30.73
2019-01-06T09:41:12.834Z,32.17
2019-01-06T09:43:55.853Z,30.50
2019-01-06T09:46:42.702Z,30.77
2019-01-06T09:49:25.474Z,30.73
2019-01-06T09:52:05.314Z,30.73
2019-01-06T09:54:54.034Z,29.40
2019-01-06T09:57:28.143Z,29.53
2019-01-06T10:00:08.378Z,29.97
2019-01-06T10:02:51.513Z,31.97
2019-01-06T10:05:38.912Z,30.23
2019-01-06T10:08:26.117Z,30.97
2019-01-06T10:11:02.974Z,30.50
2019-01-06T10:13:45.644Z,29.63
2019-01-06T10:16:31.505Z,30.53
2019-01-06T10:19:11.377Z,28.10
2019-01-06T10:21:48.971Z,30.80
2019-01-06T10:24:36.245Z,30.27
2019-01-06T10:27:10.140Z,28.83
2019-01-06T10:29:57.297Z,28.90
2019-01-06T10:32:44.103Z,30.20
2019-01-06T10:35:31.631Z,29.53
2019-01-06T10:38:02.677Z,29.60
2019-01-06T10:40:37.466Z,29.20
2019-01-06T10:43:11.196Z,30.63
2019-01-06T10:45:42.251Z,29.37
2019-01-06T10:48:19.291Z,29.30
2019-01-06T10:50:53.258Z,30.20
2019-01-06T10:53:32.979Z,30.10
2019-01-06T10:56:03.985Z,28.93
2019-01-06T10:58:40.896Z,30.50
2019-01-06T11:01:23.753Z,28.97
2019-01-06T11:04:00.692Z,29.20
2019-01-06T11:06:47.845Z,28.70
2019-01-06T11:09:35.025Z,28.73
2019-01-06T11:12:12.069Z,29.60
2019-01-06T11:14:51.983Z,29.47
2019-01-06T11:17:29.183Z,28.53
2019-01-06T11:20:08.833Z,29.80
2019-01-06T11:22:39.837Z,30.40
2019-01-06T11:25:13.459Z,29.00
2019-01-06T11:28:00.449Z,29.90
2019-01-06T11:30:40.265Z,30.53
2019-01-06T11:33:27.581Z,30.23
2019-01-06T11:36:07.529Z,29.37
2019-01-06T11:38:54.955Z,29.80
2019-01-06T11:41:41.299Z,29.07
2019-01-06T11:44:24.454Z,29.93
2019-01-06T11:47:10.322Z,29.07
2019-01-06T11:49:56.047Z,30.10
2019-01-06T11:52:43.083Z,28.30
2019-01-06T11:55:17.103Z,28.40
2019-01-06T11:58:04.195Z,28.70
2019-01-06T12:00:38.179Z,25.83
2019-01-06T12:03:17.779Z,25.63
2019-01-06T12:05:54.653Z,25.77
2019-01-06T12:08:28.531Z,25.90
2019-01-06T12:11:02.270Z,26.17
2019-01-06T12:13:33.313Z,24.13
2019-01-06T12:16:20.581Z,24.43
2019-01-06T12:18:54.384Z,23.60
2019-01-06T12:21:25.573Z,21.87
2019-01-06T12:24:05.537Z,23.10
2019-01-06T12:26:44.752Z,22.03
2019-01-06T12:29:18.403Z,22.77
2019-01-06T12:31:55.501Z,22.87
2019-01-06T12:34:42.958Z,21.80
2019-01-06T12:37:20.179Z,22.30
2019-01-06T12:40:06.059Z,22.87
2019-01-06T12:42:39.951Z,23.50
2019-01-06T12:45:13.851Z,25.27
2019-01-06T12:47:50.745Z,26.17
2019-01-06T12:50:30.633Z,25.13
2019-01-06T12:53:04.849Z,25.10
2019-01-06T12:55:38.995Z,25.73
2019-01-06T12:58:25.248Z,25.53
2019-01-06T13:01:12.422Z,26.30
2019-01-06T13:03:59.685Z,25.80
2019-01-06T13:06:35.189Z,27.13
2019-01-06T13:09:27.835Z,28.27
2019-01-06T13:11:58.921Z,27.37
2019-01-06T13:14:41.905Z,26.73
2019-01-06T13:17:28.177Z,27.73
2019-01-06T13:20:09.893Z,27.40
2019-01-06T13:22:46.897Z,26.93
2019-01-06T13:25:36.284Z,26.90
2019-01-06T13:28:16.303Z,27.50
2019-01-06T13:30:56.465Z,27.57
2019-01-06T13:33:44.243Z,27.60
2019-01-06T13:36:15.277Z,27.17
2019-01-06T13:38:52.232Z,28.37
2019-01-06T13:41:41.184Z,26.90
2019-01-06T13:44:25.790Z,28.17
2019-01-06T13:46:56.925Z,26.23
2019-01-06T13:49:44.151Z,27.63
2019-01-06T13:52:24.324Z,28.37
2019-01-06T13:55:10.583Z,28.30
2019-01-06T13:57:41.659Z,29.47
2019-01-06T14:00:24.969Z,28.50
2019-01-06T14:02:56.088Z,27.50
2019-01-06T14:05:27.460Z,26.97
2019-01-06T14:08:04.752Z,27.90
2019-01-06T14:10:47.853Z,29.03
2019-01-06T14:13:36.522Z,29.70
2019-01-06T14:16:07.689Z,29.23
2019-01-06T14:18:47.831Z,31.30
2019-01-06T14:21:25.013Z,30.80
2019-01-06T14:24:11.959Z,31.03
2019-01-06T14:26:48.837Z,31.83
2019-01-06T14:29:19.850Z,32.33
2019-01-06T14:31:51.109Z,31.90
2019-01-06T14:34:26.119Z,33.27
2019-01-06T14:37:09.089Z,32.40
2019-01-06T14:39:56.217Z,32.27
2019-01-06T14:42:42.107Z,32.87
2019-01-06T14:45:25.067Z,33.80
2019-01-06T14:47:56.192Z,33.70
2019-01-06T14:50:36.127Z,33.93
2019-01-06T14:53:09.688Z,34.80
2019-01-06T14:55:43.536Z,32.27
2019-01-06T14:58:23.585Z,34.90
2019-01-06T15:01:10.810Z,33.40
2019-01-06T15:03:58.315Z,33.60
2019-01-06T15:06:38.178Z,33.50
2019-01-06T15:09:09.419Z,32.37
2019-01-06T15:11:44.338Z,34.27
2019-01-06T15:14:27.631Z,35.00
2019-01-06T15:16:58.757Z,33.80
2019-01-06T15:19:38.671Z,34.10
2019-01-06T15:22:12.933Z,35.17
2019-01-06T15:24:46.774Z,35.67
2019-01-06T15:27:29.633Z,35.87
2019-01-06T15:30:06.297Z,33.93
2019-01-06T15:32:37.448Z,34.83
2019-01-06T15:35:24.675Z,35.73
2019-01-06T15:38:11.548Z,36.33
2019-01-06T15:40:51.754Z,35.90
2019-01-06T15:43:38.879Z,35.30
2019-01-06T15:46:24.917Z,35.80
2019-01-06T15:49:01.692Z,35.70
2019-01-06T15:51:32.783Z,36.97
2019-01-06T15:54:09.829Z,36.07
2019-01-06T15:56:50.510Z,37.03
2019-01-06T15:59:24.422Z,37.27
2019-01-06T16:02:04.222Z,37.33
2019-01-06T16:04:37.713Z,37.53
2019-01-06T16:07:17.932Z,36.97
2019-01-06T16:10:03.880Z,37.70
2019-01-06T16:12:35.013Z,37.10
2019-01-06T16:15:06.571Z,37.83
2019-01-06T16:17:53.870Z,38.03
2019-01-06T16:20:30.762Z,38.47
2019-01-06T16:23:01.961Z,38.87
2019-01-06T16:25:50.910Z,37.33
2019-01-06T16:28:36.731Z,37.70
2019-01-06T16:31:10.547Z,39.63
2019-01-06T16:33:44.033Z,39.57
2019-01-06T16:36:26.862Z,40.37
2019-01-06T16:38:57.876Z,39.10
2019-01-06T16:41:31.985Z,40.83
2019-01-06T16:44:06.032Z,42.33
2019-01-06T16:46:39.798Z,41.53
2019-01-06T16:49:13.783Z,41.27
2019-01-06T16:52:00.978Z,39.73
2019-01-06T16:54:32.130Z,41.13
2019-01-06T16:57:17.943Z,40.90
2019-01-06T17:00:00.977Z,40.00
2019-01-06T17:02:35.126Z,40.30
2019-01-06T17:05:12.560Z,41.40
2019-01-06T17:07:59.690Z,42.37
2019-01-06T17:10:33.662Z,42.57
2019-01-06T17:13:22.686Z,44.20
2019-01-06T17:15:56.534Z,44.07
2019-01-06T17:18:43.768Z,42.87
2019-01-06T17:21:32.701Z,42.83
2019-01-06T17:24:03.720Z,44.87
2019-01-06T17:26:49.686Z,43.43
2019-01-06T17:29:20.813Z,46.20
2019-01-06T17:31:54.580Z,43.80
2019-01-06T17:34:25.714Z,43.50
2019-01-06T17:37:05.621Z,44.43
2019-01-06T17:39:45.586Z,45.00
2019-01-06T17:42:31.876Z,46.33
2019-01-06T17:45:08.580Z,47.13
2019-01-06T17:47:45.338Z,45.33
2019-01-06T17:50:22.482Z,44.23
2019-01-06T17:52:53.552Z,44.83
2019-01-06T17:55:27.344Z,44.83
2019-01-06T17:58:03.911Z,45.00
2019-01-06T18:00:35.104Z,46.37
2019-01-06T18:03:06.222Z,48.77
2019-01-06T18:05:46.408Z,48.00
2019-01-06T18:08:26.276Z,46.93
2019-01-06T18:11:13.470Z,48.43
2019-01-06T18:13:44.632Z,46.90
2019-01-06T18:16:31.642Z,46.70
2019-01-06T18:19:22.247Z,47.77
2019-01-06T18:22:18.181Z,50.07
2019-01-06T18:24:49.254Z,47.77
2019-01-06T18:27:25.960Z,47.13
2019-01-06T18:29:57.116Z,45.57
2019-01-06T18:32:34.187Z,47.50
2019-01-06T18:35:21.468Z,46.23
2019-01-06T18:38:08.714Z,46.20
2019-01-06T18:40:39.871Z,46.50
2019-01-06T18:43:27.278Z,45.73
2019-01-06T18:46:03.960Z,46.67
2019-01-06T18:48:51.098Z,46.80
2019-01-06T18:51:28.186Z,45.67
2019-01-06T18:54:17.060Z,47.60
2019-01-06T18:57:02.975Z,47.00
2019-01-06T18:59:43.316Z,48.47
2019-01-06T19:02:17.256Z,47.27
2019-01-06T19:05:03.233Z,47.27
2019-01-06T19:07:37.354Z,48.93
2019-01-06T19:10:24.192Z,49.57
2019-01-06T19:13:04.030Z,49.40
2019-01-06T19:15:40.818Z,48.43
2019-01-06T19:18:20.470Z,48.67
2019-01-06T19:20:54.553Z,48.80
2019-01-06T19:23:28.212Z,48.40
2019-01-06T19:26:11.197Z,47.90
2019-01-06T19:28:42.348Z,47.77
2019-01-06T19:31:19.166Z,49.50
2019-01-06T19:34:06.138Z,50.43
2019-01-06T19:36:53.438Z,50.77
2019-01-06T19:39:40.928Z,49.47
2019-01-06T19:42:20.690Z,52.50
2019-01-06T19:44:51.885Z,51.73
2019-01-06T19:47:38.999Z,51.90
2019-01-06T19:50:16.105Z,49.97
2019-01-06T19:52:49.854Z,52.23
2019-01-06T19:55:33.796Z,50.70
2019-01-06T19:58:13.766Z,52.93
2019-01-06T20:00:44.894Z,53.23
2019-01-06T20:03:18.920Z,53.37
2019-01-06T20:06:01.808Z,52.97
2019-01-06T20:08:38.874Z,54.80
2019-01-06T20:11:26.119Z,53.87
2019-01-06T20:14:00.044Z,54.17
2019-01-06T20:16:33.914Z,53.80
2019-01-06T20:19:05.255Z,53.50
2019-01-06T20:21:36.364Z,55.50
2019-01-06T20:24:23.446Z,55.73
2019-01-06T20:27:03.359Z,55.87
2019-01-06T20:29:50.563Z,55.17
2019-01-06T20:32:24.514Z,54.00
2019-01-06T20:35:07.774Z,53.03
2019-01-06T20:37:38.870Z,53.43
2019-01-06T20:40:26.216Z,52.97
2019-01-06T20:43:09.177Z,54.80
2019-01-06T20:45:45.972Z,55.27
2019-01-06T20:48:22.968Z,54.90
2019-01-06T20:51:08.812Z,54.47
2019-01-06T20:53:39.911Z,55.37
2019-01-06T20:56:26.942Z,53.87
2019-01-06T20:59:06.684Z,56.80
2019-01-06T21:01:53.754Z,54.17
2019-01-06T21:04:33.390Z,53.80
2019-01-06T21:07:10.259Z,53.13
2019-01-06T21:09:44.229Z,53.07
2019-01-06T21:12:31.466Z,53.27
2019-01-06T21:15:08.107Z,54.53
2019-01-06T21:17:47.987Z,55.73
2019-01-06T21:20:19.038Z,54.17
2019-01-06T21:23:06.130Z,56.63
2019-01-06T21:25:52.148Z,55.47
2019-01-06T21:28:23.240Z,55.57
2019-01-06T21:30:54.418Z,55.53
2019-01-06T21:33:37.351Z,56.03
2019-01-06T21:36:08.453Z,55.17
2019-01-06T21:38:57.205Z,57.67
2019-01-06T21:41:44.326Z,57.60
2019-01-06T21:44:31.828Z,55.87
2019-01-06T21:47:06.161Z,56.50
2019-01-06T21:49:37.240Z,56.07
2019-01-06T21:52:19.900Z,57.10
2019-01-06T21:55:07.140Z,58.30
2019-01-06T21:57:44.046Z,58.13
2019-01-06T22:00:15.176Z,58.13
2019-01-06T22:02:52.310Z,57.83
2019-01-06T22:05:29.094Z,59.63
2019-01-06T22:08:16.642Z,59.73
2019-01-06T22:10:56.487Z,57.83
2019-01-06T22:13:30.465Z,56.77
2019-01-06T22:16:10.092Z,60.67
2019-01-06T22:18:41.201Z,57.03
2019-01-06T22:21:28.668Z,57.40
2019-01-06T22:24:02.733Z,60.23
2019-01-06T22:26:39.723Z,59.87
2019-01-06T22:29:27.026Z,57.97
2019-01-06T22:32:15.641Z,60.17
2019-01-06T22:34:58.653Z,60.17
2019-01-06T22:37:44.414Z,59.80
2019-01-06T22:40:15.527Z,60.40
2019-01-06T22:42:52.727Z,60.83
2019-01-06T22:45:29.861Z,60.90
2019-01-06T22:48:00.925Z,60.80
2019-01-06T22:50:32.039Z,60.70
2019-01-06T22:53:03.106Z,59.00
2019-01-06T22:55:43.223Z,61.07
2019-01-06T22:58:14.385Z,60.40
2019-01-06T23:00:48.667Z,59.37
2019-01-06T23:03:25.503Z,59.97
2019-01-06T23:06:05.709Z,60.37
2019-01-06T23:08:53.125Z,59.93
2019-01-06T23:11:36.121Z,58.77
2019-01-06T23:14:09.886Z,60.97
2019-01-06T23:16:58.937Z,60.13
2019-01-06T23:19:38.921Z,60.10
2019-01-06T23:22:21.657Z,60.07
2019-01-06T23:25:01.667Z,61.70
2019-01-06T23:27:38.284Z,61.73
2019-01-06T23:30:12.560Z,62.60
2019-01-06T23:32:46.625Z,60.07
2019-01-06T23:35:23.661Z,61.00
2019-01-06T23:37:54.770Z,58.90
2019-01-06T23:40:37.599Z,59.67
2019-01-06T23:43:17.682Z,63.17
2019-01-06T23:45:58.707Z,61.37
2019-01-06T23:48:29.769Z,61.20
2019-01-06T23:51:17.177Z,62.60
2019-01-06T23:53:53.932Z,61.40
2019-01-06T23:56:39.897Z,61.83
2019-01-06T23:59:25.667Z,64.17
